Terminal Aerodrome Forecast
Issued by NWS

Home | Current Version | Previous Version | Text Only | Print | Product List | Glossary On
Versions: 1 2 3 4 5 6 7 8 9 10 11 12 13 14 15 16 17 18
000
FTAK31 PAFA 231740 CCA
TAFAOT
TAF COR
PAOT 231740Z 2318/2418 19004KT 5SM -RA BR SCT006 BKN014 OVC021
     FM240200 14005KT P6SM VCSH SCT025 BKN050=

USA.gov is the U.S. government's official web portal to all federal, state and local government web resources and services.